Sault Sainte Marie, MI

2:54 PM EST on January 27, 2015 (GMT -0500)
Mackinac Island | Change Station
CLOSE
Current Station
Airport
Location: Mackinac Island,
Elevation: 741 ft
Nearby Weather Stations

Elev 741 ft 45.87 °N, 84.64 °W | Updated 18 minutes ago

Clear
Clear
19 °F
Feels Like 19 °F
N
0
Wind Variable Wind from North

Today
High -- | Low -- °F
--% Chance of Precip.
Yesterday
High -- | Low -- °F
Precip. -- in
8:06 AM 5:33 PM
First Quarter, 57% visible
Pressure 30.22 in
Visibility 10.0 miles
Clouds Clear
Dew Point 2 °F
Humidity 48%
Rainfall 0.00 in
Snow Depth Not available.
UV 2 out of 12
Pollen .10 out of 12
Air Quality Not available.
Flu Activity Not available.
METAR KMCD 271936Z AUTO 00000KT 10SM CLR M07/M17 A3022 RMK AO2 T10731166

More Conditions Fewer Conditions

Pressure 30.22 in
Visibility 10.0 miles
Clouds Clear
Dew Point 2 °F
Humidity 48%
Rainfall 0.00 in
Snow Depth Not available.
UV 2 out of 12
Pollen .10 out of 12
Air Quality Not available.
Flu Activity Not available.
METAR KMCD 271936Z AUTO 00000KT 10SM CLR M07/M17 A3022 RMK AO2 T10731166

More Conditions Fewer Conditions

Nowcast | as of 2:00 PM EST on January 27, 2015

At 3 PM...clear. Temperature 18. Light winds. At 5 PM...clear. Temperature 17. Light winds. At 7 PM...clear. Temperature 13. Light winds. At 9 PM...mostly clear. Temperature 10 above. Light winds.

×

10-Day Weather Forecast

Almanac

Astronomy

Jan. 27, 2015 Rise Set
Actual Time
Civil Twilight
Nautical Twilight
Astronomical Twilight
Moon
Length of Visible Light
Length of Day
Tomorrow will be .
, % of the Moon is Illuminated

Today's Extremes

State Highs State Lows

Community

WunderPhotos

Upload Photos

1,790,837 photos uploaded!

WunderBlogs® & News

Nearby

Air Quality

  Air Quality AQ Index Pollutant
Not available.

Snow Depth

Station Depth Elevation

Earthquake Activity

City Distance Mag. Time & Date
Minimum magnitude displayed is 2.5.

Coastal Water Temperatures

Place Temperature

Nearby Weather Stations